createdAt,value
2023-03-28T00:01:08.302Z,-1.19
2023-03-28T00:02:11.468Z,-1.16
2023-03-28T00:03:19.214Z,-1.19
2023-03-28T00:04:23.031Z,-1.16
2023-03-28T00:05:25.895Z,-1.17
2023-03-28T00:06:28.950Z,-1.18
2023-03-28T00:07:31.839Z,-1.20
2023-03-28T00:08:34.597Z,-1.21
2023-03-28T00:09:37.739Z,-1.23
2023-03-28T00:10:41.029Z,-1.24
2023-03-28T00:11:44.406Z,-1.24
2023-03-28T00:12:47.242Z,-1.24
2023-03-28T00:13:58.531Z,-1.22
2023-03-28T00:15:04.639Z,-1.24
2023-03-28T00:16:12.673Z,-1.23
2023-03-28T00:17:17.645Z,-1.25
2023-03-28T00:18:20.383Z,-1.28
2023-03-28T00:19:23.127Z,-1.25
2023-03-28T00:20:25.828Z,-1.27
2023-03-28T00:21:35.451Z,-1.29
2023-03-28T00:22:38.819Z,-1.28
2023-03-28T00:23:42.784Z,-1.31
2023-03-28T00:24:47.754Z,-1.34
2023-03-28T00:25:50.513Z,-1.35
2023-03-28T00:26:54.661Z,-1.35
2023-03-28T00:27:57.847Z,-1.35
2023-03-28T00:29:02.105Z,-1.37
2023-03-28T00:30:06.074Z,-1.37
2023-03-28T00:31:08.926Z,-1.37
2023-03-28T00:32:11.783Z,-1.37
2023-03-28T00:33:14.635Z,-1.38
2023-03-28T00:34:17.742Z,-1.37
2023-03-28T00:35:20.881Z,-1.41
2023-03-28T00:36:26.801Z,-1.41
2023-03-28T00:37:29.978Z,-1.40
2023-03-28T00:38:38.782Z,-1.43
2023-03-28T00:39:41.672Z,-1.43
2023-03-28T00:40:46.092Z,-1.47
2023-03-28T00:41:49.412Z,-1.49
2023-03-28T00:42:53.008Z,-1.52
2023-03-28T00:43:57.524Z,-1.55
2023-03-28T00:45:00.457Z,-1.54
2023-03-28T00:46:09.452Z,-1.56
2023-03-28T00:47:15.623Z,-1.55
2023-03-28T00:48:19.168Z,-1.56
2023-03-28T00:49:25.144Z,-1.59
2023-03-28T00:50:33.304Z,-1.58
2023-03-28T00:51:40.108Z,-1.59
2023-03-28T00:52:52.940Z,-1.61
2023-03-28T00:54:00.123Z,-1.59
2023-03-28T00:55:04.894Z,-1.60
2023-03-28T00:56:11.589Z,-1.62
2023-03-28T00:57:16.633Z,-1.65
2023-03-28T00:58:27.990Z,-1.67
2023-03-28T00:59:34.684Z,-1.66
2023-03-28T01:00:41.387Z,-1.67
2023-03-28T01:01:45.973Z,-1.68
2023-03-28T01:02:53.277Z,-1.69
2023-03-28T01:04:05.659Z,-1.69
2023-03-28T01:05:09.263Z,-1.71
2023-03-28T01:06:14.562Z,-1.74
2023-03-28T01:07:18.903Z,-1.72
2023-03-28T01:08:25.089Z,-1.72
2023-03-28T01:09:29.822Z,-1.72
2023-03-28T01:10:33.549Z,-1.76
2023-03-28T01:11:39.765Z,-1.74
2023-03-28T01:12:43.770Z,-1.75
2023-03-28T01:13:50.741Z,-1.78
2023-03-28T01:14:54.584Z,-1.76
2023-03-28T01:15:59.688Z,-1.79
2023-03-28T01:17:02.724Z,-1.79
2023-03-28T01:18:11.391Z,-1.81
2023-03-28T01:19:29.949Z,-1.84
2023-03-28T01:21:14.134Z,-1.86
2023-03-28T01:22:32.145Z,-1.86
2023-03-28T01:24:10.960Z,-1.85
2023-03-28T01:25:36.840Z,-1.85
2023-03-28T01:26:48.970Z,-1.86
2023-03-28T01:28:24.090Z,-1.87
2023-03-28T01:29:36.071Z,-1.88
2023-03-28T01:31:30.040Z,-1.91
2023-03-28T01:32:47.631Z,-1.95
2023-03-28T01:34:28.669Z,-1.92
2023-03-28T01:36:09.266Z,-1.95
2023-03-28T01:37:31.576Z,-2.01
2023-03-28T01:38:42.390Z,-1.99
2023-03-28T01:39:57.127Z,-2.02
2023-03-28T01:41:28.657Z,-2.04
2023-03-28T01:42:47.692Z,-2.06
2023-03-28T01:44:17.874Z,-2.06
2023-03-28T01:45:32.669Z,-2.09
2023-03-28T01:46:43.498Z,-2.12
2023-03-28T01:47:55.977Z,-2.12
2023-03-28T01:49:11.920Z,-2.13
2023-03-28T01:50:26.112Z,-2.13
2023-03-28T01:51:51.427Z,-2.15
2023-03-28T01:53:06.918Z,-2.16
2023-03-28T01:54:26.291Z,-2.17
2023-03-28T01:55:57.376Z,-2.18
2023-03-28T01:57:30.801Z,-2.21
2023-03-28T01:58:57.610Z,-2.20
2023-03-28T02:00:49.882Z,-2.24
2023-03-28T02:02:14.968Z,-2.25
2023-03-28T02:03:29.343Z,-2.25
2023-03-28T02:04:38.901Z,-2.22
2023-03-28T02:05:44.408Z,-2.25
2023-03-28T02:06:52.681Z,-2.25
2023-03-28T02:08:02.860Z,-2.23
2023-03-28T02:09:17.584Z,-2.25
2023-03-28T02:10:55.631Z,-2.28
2023-03-28T02:12:14.503Z,-2.28
2023-03-28T02:13:50.069Z,-2.29
2023-03-28T02:15:26.041Z,-2.27
2023-03-28T02:16:50.982Z,-2.28
2023-03-28T02:18:23.694Z,-2.29
2023-03-28T02:19:36.200Z,-2.30
2023-03-28T02:21:07.296Z,-2.28
2023-03-28T02:22:46.514Z,-2.30
2023-03-28T02:24:21.928Z,-2.29
2023-03-28T02:25:43.265Z,-2.29
2023-03-28T02:27:00.131Z,-2.30
2023-03-28T02:28:15.246Z,-2.26
2023-03-28T02:29:49.431Z,-2.27
2023-03-28T02:30:55.420Z,-2.27
2023-03-28T02:31:58.394Z,-2.27
2023-03-28T02:33:03.375Z,-2.24
2023-03-28T02:34:06.623Z,-2.21
2023-03-28T02:35:10.222Z,-2.22
2023-03-28T02:36:42.001Z,-2.19
2023-03-28T02:38:12.973Z,-2.19
2023-03-28T02:39:45.005Z,-2.20
2023-03-28T02:41:08.037Z,-2.19
2023-03-28T02:42:36.124Z,-2.16
2023-03-28T02:44:03.476Z,-2.17
2023-03-28T02:45:43.319Z,-2.19
2023-03-28T02:47:01.526Z,-2.17
2023-03-28T02:48:25.337Z,-2.15
2023-03-28T02:51:09.215Z,-2.16
2023-03-28T02:52:41.387Z,-2.15
2023-03-28T02:54:03.540Z,-2.14
2023-03-28T02:55:06.340Z,-2.15
2023-03-28T02:56:51.021Z,-2.14
2023-03-28T02:58:34.281Z,-2.18
2023-03-28T02:59:43.241Z,-2.15
2023-03-28T03:00:46.260Z,-2.15
2023-03-28T03:01:49.488Z,-2.18
2023-03-28T03:02:52.609Z,-2.15
2023-03-28T03:03:57.983Z,-2.17
2023-03-28T03:05:01.875Z,-2.14
2023-03-28T03:06:05.517Z,-2.17
2023-03-28T03:07:09.665Z,-2.15
2023-03-28T03:08:12.536Z,-2.16
2023-03-28T03:09:16.842Z,-2.18
2023-03-28T03:10:20.138Z,-2.18
2023-03-28T03:11:25.001Z,-2.19
2023-03-28T03:12:27.821Z,-2.16
2023-03-28T03:13:32.789Z,-2.16
2023-03-28T03:14:39.007Z,-2.19
2023-03-28T03:16:11.263Z,-2.20
2023-03-28T03:17:14.190Z,-2.21
2023-03-28T03:18:17.198Z,-2.22
2023-03-28T03:19:20.216Z,-2.19
2023-03-28T03:20:23.067Z,-2.22
2023-03-28T03:21:26.579Z,-2.22
2023-03-28T03:22:29.402Z,-2.21
2023-03-28T03:23:32.186Z,-2.25
2023-03-28T03:24:36.542Z,-2.26
2023-03-28T03:25:39.723Z,-2.22
2023-03-28T03:27:08.762Z,-2.26
2023-03-28T03:28:13.212Z,-2.24
2023-03-28T03:29:16.845Z,-2.24
2023-03-28T03:30:20.839Z,-2.25
2023-03-28T03:31:42.309Z,-2.30
2023-03-28T03:33:16.687Z,-2.28
2023-03-28T03:34:20.875Z,-2.25
2023-03-28T03:35:34.684Z,-2.25
2023-03-28T03:36:40.616Z,-2.25
2023-03-28T03:37:43.887Z,-2.28
2023-03-28T03:38:47.649Z,-2.29
2023-03-28T03:39:54.429Z,-2.26
2023-03-28T03:41:03.102Z,-2.27
2023-03-28T03:42:06.004Z,-2.28
2023-03-28T03:43:09.389Z,-2.30
2023-03-28T03:44:12.648Z,-2.31
2023-03-28T03:45:15.827Z,-2.32
2023-03-28T03:46:19.230Z,-2.31
2023-03-28T03:47:23.520Z,-2.31
2023-03-28T03:48:26.676Z,-2.30
2023-03-28T03:49:32.975Z,-2.27
2023-03-28T03:50:38.722Z,-2.27
2023-03-28T03:51:47.655Z,-2.26
2023-03-28T03:52:52.342Z,-2.25
2023-03-28T03:53:59.867Z,-2.23
2023-03-28T03:55:14.676Z,-2.22
2023-03-28T03:56:17.953Z,-2.22
2023-03-28T03:57:32.531Z,-2.24
2023-03-28T03:58:37.481Z,-2.24
2023-03-28T03:59:43.462Z,-2.21
2023-03-28T04:00:49.247Z,-2.22
2023-03-28T04:02:09.999Z,-2.23
2023-03-28T04:03:24.127Z,-2.23
2023-03-28T04:04:28.540Z,-2.22
2023-03-28T04:05:49.597Z,-2.25
2023-03-28T04:06:52.417Z,-2.26
2023-03-28T04:07:57.608Z,-2.26
2023-03-28T04:09:07.726Z,-2.25
2023-03-28T04:10:30.808Z,-2.24
2023-03-28T04:11:34.899Z,-2.28
2023-03-28T04:12:37.810Z,-2.25
2023-03-28T04:13:41.587Z,-2.27
2023-03-28T04:14:44.428Z,-2.25
2023-03-28T04:16:23.951Z,-2.26
2023-03-28T04:17:35.282Z,-2.24
2023-03-28T04:18:45.678Z,-2.22
2023-03-28T04:19:49.736Z,-2.21
2023-03-28T04:20:56.237Z,-2.24
2023-03-28T04:22:18.296Z,-2.20
2023-03-28T04:23:26.245Z,-2.19
2023-03-28T04:24:29.837Z,-2.22
2023-03-28T04:25:49.364Z,-2.20
2023-03-28T04:27:00.361Z,-2.19
2023-03-28T04:28:03.534Z,-2.21
2023-03-28T04:29:10.558Z,-2.21
2023-03-28T04:30:18.094Z,-2.20
2023-03-28T04:31:41.427Z,-2.20
2023-03-28T04:33:25.206Z,-2.19
2023-03-28T04:34:31.522Z,-2.19
2023-03-28T04:35:42.246Z,-2.19
2023-03-28T04:36:47.065Z,-2.19
2023-03-28T04:37:49.840Z,-2.16
2023-03-28T04:38:59.186Z,-2.15
2023-03-28T04:40:28.170Z,-2.16
2023-03-28T04:41:55.994Z,-2.14
2023-03-28T04:43:17.766Z,-2.10
2023-03-28T04:44:27.866Z,-2.09
2023-03-28T04:45:39.330Z,-2.08
2023-03-28T04:46:51.036Z,-2.07
2023-03-28T04:47:53.956Z,-2.03
2023-03-28T04:48:57.546Z,-2.03
2023-03-28T04:50:03.996Z,-2.00
2023-03-28T04:51:10.286Z,-1.98
2023-03-28T04:52:14.582Z,-1.95
2023-03-28T04:53:20.741Z,-1.92
2023-03-28T04:54:42.416Z,-1.88
2023-03-28T04:55:51.167Z,-1.89
2023-03-28T04:56:57.486Z,-1.83
2023-03-28T04:58:08.839Z,-1.81
2023-03-28T04:59:12.431Z,-1.82
2023-03-28T05:00:17.359Z,-1.79
2023-03-28T05:01:38.308Z,-1.76
2023-03-28T05:03:14.830Z,-1.74
2023-03-28T05:04:26.659Z,-1.72
2023-03-28T05:05:30.951Z,-1.68
2023-03-28T05:06:34.248Z,-1.68
2023-03-28T05:07:37.383Z,-1.64
2023-03-28T05:08:40.331Z,-1.61
2023-03-28T05:09:43.436Z,-1.61
2023-03-28T05:10:46.921Z,-1.56
2023-03-28T05:11:50.156Z,-1.54
2023-03-28T05:12:53.812Z,-1.47
2023-03-28T05:13:58.345Z,-1.44
2023-03-28T05:15:22.182Z,-1.41
2023-03-28T05:16:49.089Z,-1.35
2023-03-28T05:18:11.652Z,-1.31
2023-03-28T05:19:14.396Z,-1.28
2023-03-28T05:20:46.488Z,-1.23
2023-03-28T05:21:49.803Z,-1.20
2023-03-28T05:22:54.189Z,-1.17
2023-03-28T05:23:57.006Z,-1.15
2023-03-28T05:25:00.405Z,-1.10
2023-03-28T05:26:03.358Z,-1.05
2023-03-28T05:27:08.191Z,-1.02
2023-03-28T05:28:12.331Z,-0.98
2023-03-28T05:29:23.083Z,-0.93
2023-03-28T05:30:26.289Z,-0.90
2023-03-28T05:31:30.958Z,-0.86
2023-03-28T05:32:48.118Z,-0.82
2023-03-28T05:33:52.026Z,-0.79
2023-03-28T05:35:05.913Z,-0.76
2023-03-28T05:36:09.219Z,-0.77
2023-03-28T05:37:12.571Z,-0.72
2023-03-28T05:38:25.435Z,-0.67
2023-03-28T05:39:31.413Z,-0.66
2023-03-28T05:40:41.110Z,-0.60
2023-03-28T05:41:43.869Z,-0.55
2023-03-28T05:42:47.551Z,-0.54
2023-03-28T05:43:51.668Z,-0.46
2023-03-28T05:45:07.469Z,-0.45
2023-03-28T05:46:32.001Z,-0.38
2023-03-28T05:47:35.053Z,-0.34
2023-03-28T05:48:38.605Z,-0.32
2023-03-28T05:49:41.758Z,-0.28
2023-03-28T05:50:48.525Z,-0.24
2023-03-28T05:51:52.138Z,-0.18
2023-03-28T05:52:55.069Z,-0.16
2023-03-28T05:53:57.847Z,-0.14
2023-03-28T05:55:00.841Z,-0.11
2023-03-28T05:56:04.366Z,-0.10
2023-03-28T05:57:09.120Z,-0.08
2023-03-28T05:58:12.038Z,-0.06
2023-03-28T05:59:18.836Z,-0.04
2023-03-28T06:00:25.735Z,-0.03
2023-03-28T06:01:46.122Z,-0.01
2023-03-28T06:02:51.771Z,0.01
2023-03-28T06:03:56.114Z,0.03
2023-03-28T06:05:00.354Z,0.04
2023-03-28T06:06:04.608Z,0.06
2023-03-28T06:07:07.976Z,0.07
2023-03-28T06:08:10.913Z,0.10
2023-03-28T06:09:15.776Z,0.13
2023-03-28T06:10:26.572Z,0.15
2023-03-28T06:11:45.235Z,0.17
2023-03-28T06:12:47.993Z,0.19
2023-03-28T06:13:50.804Z,0.22
2023-03-28T06:14:54.932Z,0.23
2023-03-28T06:16:03.905Z,0.25
2023-03-28T06:17:08.895Z,0.27
2023-03-28T06:18:22.228Z,0.31
2023-03-28T06:19:26.327Z,0.29
2023-03-28T06:20:31.210Z,0.34
2023-03-28T06:21:34.483Z,0.34
2023-03-28T06:22:41.391Z,0.41
2023-03-28T06:23:46.639Z,0.40
2023-03-28T06:24:58.806Z,0.45
2023-03-28T06:26:07.685Z,0.47
2023-03-28T06:27:16.148Z,0.48
2023-03-28T06:28:18.934Z,0.48
2023-03-28T06:29:57.169Z,0.50
2023-03-28T06:31:00.177Z,0.52
2023-03-28T06:32:04.231Z,0.57
2023-03-28T06:33:07.878Z,0.56
2023-03-28T06:34:10.757Z,0.59
2023-03-28T06:35:22.585Z,0.66
2023-03-28T06:36:26.181Z,0.66
2023-03-28T06:37:29.014Z,0.68
2023-03-28T06:38:38.234Z,0.72
2023-03-28T06:39:41.377Z,0.71
2023-03-28T06:40:45.249Z,0.72
2023-03-28T06:41:48.463Z,0.74
2023-03-28T06:42:51.297Z,0.78
2023-03-28T06:44:12.557Z,0.83
2023-03-28T06:45:33.984Z,0.88
2023-03-28T06:46:40.045Z,0.90
2023-03-28T06:47:42.867Z,0.91
2023-03-28T06:48:46.000Z,0.94
2023-03-28T06:50:01.031Z,0.98
2023-03-28T06:51:13.213Z,1.00
2023-03-28T06:52:17.029Z,1.03
2023-03-28T06:53:20.983Z,1.07
2023-03-28T06:54:24.005Z,1.13
2023-03-28T06:55:26.961Z,1.18
2023-03-28T06:56:31.256Z,1.17
2023-03-28T06:57:34.539Z,1.20
2023-03-28T06:58:46.141Z,1.25
2023-03-28T06:59:51.677Z,1.22
2023-03-28T07:01:00.215Z,1.27
2023-03-28T07:02:17.345Z,1.30
2023-03-28T07:03:20.959Z,1.35
2023-03-28T07:04:23.803Z,1.35
2023-03-28T07:05:26.600Z,1.38
2023-03-28T07:06:29.690Z,1.42
2023-03-28T07:07:32.651Z,1.40
2023-03-28T07:08:36.631Z,1.43
2023-03-28T07:09:39.556Z,1.46
2023-03-28T07:10:46.150Z,1.55
2023-03-28T07:11:49.395Z,1.58
2023-03-28T07:12:55.152Z,1.59
2023-03-28T07:13:58.192Z,1.63
2023-03-28T07:15:01.041Z,1.70
2023-03-28T07:16:09.011Z,1.73
2023-03-28T07:17:12.147Z,1.76
2023-03-28T07:18:14.943Z,1.77
2023-03-28T07:19:17.877Z,1.80
2023-03-28T07:20:22.246Z,1.83
2023-03-28T07:21:25.621Z,1.87
2023-03-28T07:22:31.304Z,1.90
2023-03-28T07:23:34.133Z,1.91
2023-03-28T07:24:36.981Z,1.93
2023-03-28T07:25:47.013Z,1.95
2023-03-28T07:26:50.047Z,1.97
2023-03-28T07:27:52.992Z,1.97
2023-03-28T07:28:56.659Z,2.00
2023-03-28T07:29:59.549Z,2.03
2023-03-28T07:31:04.631Z,2.07
2023-03-28T07:32:09.147Z,2.09
2023-03-28T07:33:18.899Z,2.13
2023-03-28T07:34:25.123Z,2.18
2023-03-28T07:35:28.039Z,2.22
2023-03-28T07:36:30.999Z,2.27
2023-03-28T07:37:40.173Z,2.33
2023-03-28T07:38:52.586Z,2.38
2023-03-28T07:39:57.170Z,2.45
2023-03-28T07:41:01.645Z,2.52
2023-03-28T07:42:04.898Z,2.55
2023-03-28T07:43:07.853Z,2.56
2023-03-28T07:44:12.807Z,2.58
2023-03-28T07:45:15.908Z,2.63
2023-03-28T07:46:21.095Z,2.68
2023-03-28T07:47:24.112Z,2.73
2023-03-28T07:48:26.912Z,2.76
2023-03-28T07:49:30.010Z,2.80
2023-03-28T07:50:32.875Z,2.83
2023-03-28T07:51:35.809Z,2.88
2023-03-28T07:52:44.222Z,2.94
2023-03-28T07:53:47.389Z,2.99
2023-03-28T07:54:50.483Z,3.05
2023-03-28T07:55:56.016Z,3.11
2023-03-28T07:57:05.279Z,3.19
2023-03-28T07:58:26.753Z,3.30
2023-03-28T07:59:32.062Z,3.37
2023-03-28T08:00:35.567Z,3.40
2023-03-28T08:02:10.615Z,3.42
2023-03-28T08:03:14.507Z,3.43
2023-03-28T08:04:17.780Z,3.48
2023-03-28T08:05:52.074Z,3.58
2023-03-28T08:06:56.152Z,3.67
2023-03-28T08:07:59.478Z,3.77
2023-03-28T08:09:02.409Z,3.82
2023-03-28T08:10:11.423Z,3.86
2023-03-28T08:11:14.366Z,3.89
2023-03-28T08:12:19.076Z,3.91
2023-03-28T08:13:23.152Z,3.94
2023-03-28T08:14:26.084Z,3.94
2023-03-28T08:15:28.941Z,3.97
2023-03-28T08:16:33.354Z,3.98
2023-03-28T08:17:36.326Z,4.00
2023-03-28T08:18:39.307Z,4.02
2023-03-28T08:19:42.164Z,4.06
2023-03-28T08:20:48.593Z,4.14
2023-03-28T08:21:52.296Z,4.19
2023-03-28T08:22:55.177Z,4.22
2023-03-28T08:24:28.914Z,4.31
2023-03-28T08:25:44.449Z,4.32
2023-03-28T08:26:48.880Z,4.38
2023-03-28T08:27:52.181Z,4.42
2023-03-28T08:28:58.791Z,4.44
2023-03-28T08:30:02.179Z,4.56
2023-03-28T08:31:14.683Z,4.58
2023-03-28T08:32:18.136Z,4.70
2023-03-28T08:33:21.522Z,4.68
2023-03-28T08:34:24.593Z,4.64
2023-03-28T08:35:27.634Z,4.62
2023-03-28T08:36:32.423Z,4.61
2023-03-28T08:37:35.695Z,4.58
2023-03-28T08:38:38.692Z,4.57
2023-03-28T08:39:42.801Z,4.48
2023-03-28T08:40:57.966Z,4.43
2023-03-28T08:42:24.447Z,4.32
2023-03-28T08:43:43.060Z,4.25
2023-03-28T08:45:09.995Z,4.20
2023-03-28T08:46:18.660Z,4.13
2023-03-28T08:47:30.102Z,4.10
2023-03-28T08:48:45.006Z,4.03
2023-03-28T08:49:56.242Z,3.95
2023-03-28T08:51:06.724Z,3.94
2023-03-28T08:52:12.529Z,3.92
2023-03-28T08:53:24.331Z,3.93
2023-03-28T08:54:42.550Z,3.99
2023-03-28T08:55:47.761Z,4.06
2023-03-28T08:56:57.212Z,4.14
2023-03-28T08:58:00.363Z,4.24
2023-03-28T08:59:10.380Z,4.33
2023-03-28T09:00:24.184Z,4.42
2023-03-28T09:01:32.890Z,4.47
2023-03-28T09:02:36.370Z,4.49
2023-03-28T09:03:39.695Z,4.51
2023-03-28T09:04:47.021Z,4.55
2023-03-28T09:06:16.285Z,4.62
2023-03-28T09:07:27.641Z,4.68
2023-03-28T09:08:33.237Z,4.77
2023-03-28T09:10:07.884Z,4.82
2023-03-28T09:11:42.733Z,4.85
2023-03-28T09:13:12.609Z,4.92
2023-03-28T09:14:56.576Z,4.85
2023-03-28T09:16:00.093Z,4.63
2023-03-28T09:17:03.675Z,4.45
2023-03-28T09:18:33.192Z,4.23
2023-03-28T09:20:11.719Z,3.94
2023-03-28T09:21:33.466Z,3.64
2023-03-28T09:23:00.260Z,3.45
2023-03-28T09:24:39.839Z,3.28
2023-03-28T09:26:00.862Z,3.15
2023-03-28T09:27:22.369Z,3.11
2023-03-28T09:28:54.931Z,3.06
2023-03-28T09:30:08.325Z,2.98
2023-03-28T09:31:14.251Z,2.90
2023-03-28T09:32:22.719Z,2.85
2023-03-28T09:33:30.481Z,2.80
2023-03-28T09:34:44.820Z,2.72
2023-03-28T09:35:50.442Z,2.68
2023-03-28T09:37:01.191Z,2.63
2023-03-28T09:38:12.101Z,2.60
2023-03-28T09:39:27.096Z,2.54
2023-03-28T09:40:33.166Z,2.45
2023-03-28T09:42:09.320Z,2.43
2023-03-28T09:43:30.161Z,2.39
2023-03-28T09:45:05.697Z,2.46
2023-03-28T09:46:41.652Z,2.44
2023-03-28T09:48:29.065Z,2.44
2023-03-28T09:49:35.168Z,2.51
2023-03-28T09:50:41.468Z,2.50
2023-03-28T09:51:44.815Z,2.48
2023-03-28T09:52:51.165Z,2.46
2023-03-28T09:53:54.041Z,2.42
2023-03-28T09:54:58.084Z,2.38
2023-03-28T09:56:04.954Z,2.37
2023-03-28T09:57:11.499Z,2.34
2023-03-28T09:58:26.059Z,2.32
2023-03-28T09:59:40.666Z,2.27
2023-03-28T10:00:50.857Z,2.27
2023-03-28T10:02:32.525Z,2.24
2023-03-28T10:03:39.867Z,2.28
2023-03-28T10:04:44.639Z,2.26
2023-03-28T10:05:51.762Z,2.34
2023-03-28T10:07:12.538Z,2.43
2023-03-28T10:08:23.937Z,2.56
2023-03-28T10:10:10.940Z,2.69
2023-03-28T10:11:19.067Z,2.75
2023-03-28T10:12:43.584Z,2.83
2023-03-28T10:13:48.467Z,2.86
2023-03-28T10:14:51.676Z,2.91
2023-03-28T10:16:15.457Z,2.97
2023-03-28T10:17:37.081Z,3.01
2023-03-28T10:18:43.083Z,3.05
2023-03-28T10:19:47.824Z,3.08
2023-03-28T10:21:06.683Z,3.14
2023-03-28T10:22:22.699Z,3.11
2023-03-28T10:23:27.489Z,3.08
2023-03-28T10:24:32.934Z,3.00
2023-03-28T10:25:39.157Z,2.95
2023-03-28T10:26:42.143Z,2.85
2023-03-28T10:27:45.022Z,2.81
2023-03-28T10:28:52.448Z,2.76
2023-03-28T10:29:57.676Z,2.78
2023-03-28T10:31:05.707Z,2.76
2023-03-28T10:32:22.819Z,2.82
2023-03-28T10:33:43.293Z,2.88
2023-03-28T10:35:28.369Z,2.94
2023-03-28T10:36:51.723Z,3.07
2023-03-28T10:38:03.502Z,3.17
2023-03-28T10:39:29.510Z,3.18
2023-03-28T10:41:03.745Z,3.18
2023-03-28T10:42:41.100Z,3.11
2023-03-28T10:44:18.104Z,3.11
2023-03-28T10:45:36.792Z,3.01
2023-03-28T10:46:41.417Z,2.98
2023-03-28T10:48:00.954Z,2.98
2023-03-28T10:49:15.735Z,2.92
2023-03-28T10:50:55.166Z,2.92
2023-03-28T10:51:58.248Z,2.97
2023-03-28T10:53:27.171Z,2.99
2023-03-28T10:54:52.773Z,3.13
2023-03-28T10:56:38.487Z,3.16
2023-03-28T10:58:21.246Z,3.22
2023-03-28T10:59:28.029Z,3.22
2023-03-28T11:00:38.921Z,3.24
2023-03-28T11:01:57.183Z,3.23
2023-03-28T11:03:24.580Z,3.14
2023-03-28T11:05:11.964Z,3.08
2023-03-28T11:06:43.477Z,2.99
2023-03-28T11:08:22.779Z,2.92
2023-03-28T11:10:11.363Z,2.80
2023-03-28T11:11:46.482Z,2.70
2023-03-28T11:13:20.780Z,2.70
2023-03-28T11:14:29.039Z,2.68
2023-03-28T11:15:56.772Z,2.67
2023-03-28T11:17:52.878Z,2.67
2023-03-28T11:19:14.924Z,2.63
2023-03-28T11:20:23.056Z,2.66
2023-03-28T11:21:40.973Z,2.73
2023-03-28T11:23:06.842Z,2.76
2023-03-28T11:25:02.690Z,2.82
2023-03-28T11:27:12.666Z,2.93
2023-03-28T11:29:10.963Z,3.01
2023-03-28T11:30:23.021Z,3.08
2023-03-28T11:31:41.397Z,3.13
2023-03-28T11:33:05.694Z,3.15
2023-03-28T11:34:30.580Z,3.12
2023-03-28T11:35:54.363Z,3.15
2023-03-28T11:37:04.309Z,3.19
2023-03-28T11:38:14.834Z,3.22
2023-03-28T11:39:21.900Z,3.25
2023-03-28T11:40:34.446Z,3.27
2023-03-28T11:41:44.426Z,3.30
2023-03-28T11:43:00.488Z,3.32
2023-03-28T11:44:16.226Z,3.37
2023-03-28T11:45:52.022Z,3.41
2023-03-28T11:47:16.339Z,3.47
2023-03-28T11:48:30.864Z,3.56
2023-03-28T11:49:42.838Z,3.63
2023-03-28T11:51:29.213Z,3.68
2023-03-28T11:53:08.459Z,3.70
2023-03-28T11:54:22.347Z,3.66
2023-03-28T11:55:33.707Z,3.66
2023-03-28T11:57:01.323Z,3.64
2023-03-28T11:58:26.200Z,3.57
2023-03-28T12:00:14.884Z,3.62
2023-03-28T12:01:30.053Z,3.58
2023-03-28T12:02:42.395Z,3.60
2023-03-28T12:03:58.111Z,3.57
2023-03-28T12:05:25.445Z,3.62
2023-03-28T12:06:37.418Z,3.73
2023-03-28T12:07:47.161Z,3.80
2023-03-28T12:09:36.623Z,3.83
2023-03-28T12:10:43.507Z,3.88
2023-03-28T12:12:04.642Z,3.89
2023-03-28T12:13:16.880Z,3.89
2023-03-28T12:14:43.550Z,3.89
2023-03-28T12:16:17.906Z,3.87
2023-03-28T12:17:27.189Z,3.90
2023-03-28T12:18:42.618Z,3.88
2023-03-28T12:19:49.084Z,3.86
2023-03-28T12:21:00.858Z,3.86
2023-03-28T12:22:21.393Z,3.94
2023-03-28T12:23:44.891Z,3.98
2023-03-28T12:25:07.632Z,4.04
2023-03-28T12:26:23.514Z,4.09
2023-03-28T12:27:39.033Z,4.22
2023-03-28T12:28:56.972Z,4.26
2023-03-28T12:30:12.284Z,4.31
2023-03-28T12:31:31.636Z,4.33
2023-03-28T12:32:58.663Z,4.31
2023-03-28T12:34:15.124Z,4.38
2023-03-28T12:35:55.398Z,4.42
2023-03-28T12:37:12.166Z,4.55
2023-03-28T12:38:32.854Z,4.67
2023-03-28T12:40:13.172Z,4.75
2023-03-28T12:41:21.055Z,4.80
2023-03-28T12:42:27.190Z,4.76
2023-03-28T12:43:44.685Z,4.72
2023-03-28T12:44:59.864Z,4.67
2023-03-28T12:46:08.079Z,4.58
2023-03-28T12:47:19.237Z,4.52
2023-03-28T12:48:30.510Z,4.63
2023-03-28T12:49:48.805Z,4.71
2023-03-28T12:51:15.421Z,4.77
2023-03-28T12:52:32.438Z,4.81
2023-03-28T12:53:43.781Z,4.82
2023-03-28T12:55:01.811Z,4.92
2023-03-28T12:56:15.545Z,5.05
2023-03-28T12:57:40.263Z,5.13
2023-03-28T12:58:52.709Z,5.09
2023-03-28T13:00:01.534Z,5.10
2023-03-28T13:01:20.498Z,5.04
2023-03-28T13:03:01.518Z,4.91
2023-03-28T13:04:10.979Z,4.81
2023-03-28T13:06:09.123Z,4.70
2023-03-28T13:07:43.249Z,4.57
2023-03-28T13:09:05.874Z,4.55
2023-03-28T13:10:24.245Z,4.55
2023-03-28T13:11:44.043Z,4.51
2023-03-28T13:12:56.983Z,4.51
2023-03-28T13:14:27.443Z,4.43
2023-03-28T13:15:32.876Z,4.35
2023-03-28T13:16:51.669Z,4.28
2023-03-28T13:18:22.280Z,4.19
2023-03-28T13:20:50.119Z,4.07
2023-03-28T13:22:31.680Z,3.92
2023-03-28T13:23:45.815Z,3.87
2023-03-28T13:24:48.596Z,3.82
2023-03-28T13:25:56.720Z,3.75
2023-03-28T13:27:06.106Z,3.78
2023-03-28T13:28:11.896Z,3.79
2023-03-28T13:29:14.900Z,3.80
2023-03-28T13:30:26.083Z,3.82
2023-03-28T13:31:29.024Z,3.83
2023-03-28T13:32:46.597Z,3.82
2023-03-28T13:33:59.827Z,3.82
2023-03-28T13:35:05.641Z,3.80
2023-03-28T13:36:08.490Z,3.87
2023-03-28T13:37:24.813Z,3.90
2023-03-28T13:38:27.543Z,3.91
2023-03-28T13:39:30.495Z,3.93
2023-03-28T13:40:51.272Z,3.95
2023-03-28T13:41:57.433Z,4.00
2023-03-28T13:43:00.336Z,3.98
2023-03-28T13:44:13.326Z,3.93
2023-03-28T13:45:23.945Z,3.94
2023-03-28T13:46:30.305Z,3.89
2023-03-28T13:47:38.359Z,3.95
2023-03-28T13:48:51.719Z,3.96
2023-03-28T13:50:04.149Z,3.93
2023-03-28T13:51:11.706Z,3.91
2023-03-28T13:52:19.319Z,3.88
2023-03-28T13:53:22.288Z,3.84
2023-03-28T13:54:28.330Z,3.86
2023-03-28T13:55:31.221Z,3.85
2023-03-28T13:56:36.166Z,3.87
2023-03-28T13:57:39.025Z,3.91
2023-03-28T13:58:41.825Z,3.92
2023-03-28T14:00:13.705Z,3.91
2023-03-28T14:01:42.195Z,3.96
2023-03-28T14:02:49.061Z,4.05
2023-03-28T14:03:55.837Z,4.10
2023-03-28T14:05:11.928Z,4.10
2023-03-28T14:06:40.576Z,4.06
2023-03-28T14:07:43.656Z,4.03
2023-03-28T14:08:53.471Z,4.06
2023-03-28T14:09:57.591Z,4.06
2023-03-28T14:11:00.902Z,4.07
2023-03-28T14:12:08.567Z,4.06
2023-03-28T14:13:18.460Z,4.07
2023-03-28T14:14:31.423Z,4.07
2023-03-28T14:15:37.513Z,4.05
2023-03-28T14:16:43.854Z,4.02
2023-03-28T14:17:46.997Z,4.00
2023-03-28T14:18:52.263Z,4.00
2023-03-28T14:19:58.724Z,4.01
2023-03-28T14:21:02.373Z,4.01
2023-03-28T14:22:07.732Z,4.00
2023-03-28T14:23:32.634Z,4.00
2023-03-28T14:24:36.899Z,4.02
2023-03-28T14:25:39.637Z,4.03
2023-03-28T14:26:42.634Z,4.02
2023-03-28T14:27:50.020Z,4.00
2023-03-28T14:28:53.121Z,3.97
2023-03-28T14:30:00.499Z,3.96
2023-03-28T14:31:03.619Z,3.94
2023-03-28T14:32:08.101Z,3.92
2023-03-28T14:33:14.137Z,3.87
2023-03-28T14:34:21.387Z,3.79
2023-03-28T14:35:29.465Z,3.74
2023-03-28T14:36:37.896Z,3.67
2023-03-28T14:37:47.617Z,3.64
2023-03-28T14:38:50.379Z,3.62
2023-03-28T14:39:54.341Z,3.59
2023-03-28T14:41:29.301Z,3.55
2023-03-28T14:42:33.090Z,3.53
2023-03-28T14:43:37.043Z,3.53
2023-03-28T14:44:43.230Z,3.57
2023-03-28T14:45:51.950Z,3.62
2023-03-28T14:46:58.610Z,3.69
2023-03-28T14:48:04.349Z,3.76
2023-03-28T14:49:10.149Z,3.78
2023-03-28T14:50:17.068Z,3.81
2023-03-28T14:51:23.459Z,3.79
2023-03-28T14:52:30.843Z,3.75
2023-03-28T14:53:42.297Z,3.76
2023-03-28T14:54:50.133Z,3.74
2023-03-28T14:56:06.435Z,3.71
2023-03-28T14:57:15.701Z,3.67
2023-03-28T14:58:19.390Z,3.63
2023-03-28T14:59:31.145Z,3.60
2023-03-28T15:00:40.951Z,3.56
2023-03-28T15:01:45.276Z,3.51
2023-03-28T15:02:51.172Z,3.43
2023-03-28T15:04:00.023Z,3.32
2023-03-28T15:05:08.196Z,3.27
2023-03-28T15:06:15.181Z,3.20
2023-03-28T15:07:29.387Z,3.12
2023-03-28T15:08:36.022Z,3.05
2023-03-28T15:09:38.838Z,2.99
2023-03-28T15:10:51.510Z,2.94
2023-03-28T15:11:55.900Z,2.93
2023-03-28T15:13:38.191Z,2.86
2023-03-28T15:14:45.071Z,2.80
2023-03-28T15:15:48.761Z,2.77
2023-03-28T15:16:51.928Z,2.70
2023-03-28T15:17:57.165Z,2.66
2023-03-28T15:19:07.745Z,2.64
2023-03-28T15:20:17.659Z,2.57
2023-03-28T15:21:23.785Z,2.51
2023-03-28T15:22:28.960Z,2.49
2023-03-28T15:23:38.652Z,2.46
2023-03-28T15:24:41.829Z,2.44
2023-03-28T15:25:45.019Z,2.39
2023-03-28T15:26:51.226Z,2.40
2023-03-28T15:27:58.101Z,2.36
2023-03-28T15:29:01.576Z,2.33
2023-03-28T15:30:12.826Z,2.34
2023-03-28T15:31:16.556Z,2.34
2023-03-28T15:32:20.583Z,2.29
2023-03-28T15:33:26.030Z,2.30
2023-03-28T15:34:28.916Z,2.26
2023-03-28T15:35:43.582Z,2.25
2023-03-28T15:37:08.819Z,2.29
2023-03-28T15:38:21.660Z,2.30
2023-03-28T15:39:33.443Z,2.31
2023-03-28T15:40:42.368Z,2.31
2023-03-28T15:41:46.796Z,2.32
2023-03-28T15:42:51.557Z,2.31
2023-03-28T15:43:54.296Z,2.29
2023-03-28T15:44:57.208Z,2.28
2023-03-28T15:46:02.314Z,2.29
2023-03-28T15:47:09.805Z,2.28
2023-03-28T15:48:20.155Z,2.25
2023-03-28T15:49:22.932Z,2.22
2023-03-28T15:50:38.548Z,2.18
2023-03-28T15:51:49.848Z,2.15